Time;durP1;ratioP1;P1;durP2;ratioP2;P2;SDS_P1;SDS_P2;PMS_P1;PMS_P2;Temp;Humidity;BMP_temperature;BMP_pressure;BME280_temperature;BME280_humidity;BME280_pressure;Samples;Min_cycle;Max_cycle;Signal;HPM_P1;HPM_P2
2023/09/22 00:01:54;;;;;;;0.73;0.40;;;;;;;;;;5043047;28;20251;-72
2023/09/22 00:04:20;;;;;;;0.90;0.40;;;;;;;;;;5042321;28;20233;-72
2023/09/22 00:06:47;;;;;;;0.65;0.50;;;;;;;;;;5039208;28;20336;-72
2023/09/22 00:09:13;;;;;;;1.30;0.43;;;;;;;;;;5040461;28;20260;-72
2023/09/22 00:11:39;;;;;;;1.50;0.35;;;;;;;;;;5045471;28;20440;-72
2023/09/22 00:14:07;;;;;;;1.30;0.50;;;;;;;;;;5043032;28;20196;-72
2023/09/22 00:16:34;;;;;;;0.82;0.63;;;;;;;;;;5040717;28;20217;-72
2023/09/22 00:19:05;;;;;;;1.85;0.50;;;;;;;;;;5039761;28;20202;-72
2023/09/22 00:21:31;;;;;;;0.68;0.43;;;;;;;;;;5041476;28;20590;-72
2023/09/22 00:23:57;;;;;;;0.60;0.30;;;;;;;;;;5046148;28;20208;-72
2023/09/22 00:26:23;;;;;;;1.17;0.60;;;;;;;;;;5045729;28;20251;-72
2023/09/22 00:28:50;;;;;;;2.65;0.50;;;;;;;;;;5043296;28;20208;-72
2023/09/22 00:31:17;;;;;;;2.15;0.43;;;;;;;;;;5043301;28;20205;-72
2023/09/22 00:33:43;;;;;;;1.20;0.45;;;;;;;;;;5034929;28;20214;-72
2023/09/22 00:36:10;;;;;;;1.75;0.50;;;;;;;;;;5042977;28;20241;-72
2023/09/22 00:38:36;;;;;;;4.57;0.60;;;;;;;;;;5045224;28;20677;-72
2023/09/22 00:41:03;;;;;;;4.65;0.60;;;;;;;;;;5046674;28;20209;-72
2023/09/22 00:43:29;;;;;;;1.75;0.35;;;;;;;;;;5045085;28;20197;-72
2023/09/22 00:45:55;;;;;;;1.55;0.35;;;;;;;;;;5042917;28;20729;-72
2023/09/22 00:48:24;;;;;;;0.40;0.40;;;;;;;;;;5042856;28;20198;-72
2023/09/22 00:50:51;;;;;;;0.40;0.40;;;;;;;;;;5046191;28;20193;-72
2023/09/22 00:53:18;;;;;;;0.77;0.60;;;;;;;;;;5046136;28;20306;-73
2023/09/22 00:55:45;;;;;;;0.50;0.50;;;;;;;;;;5042669;28;20217;-73
2023/09/22 00:58:11;;;;;;;0.50;0.50;;;;;;;;;;5042640;28;20198;-73
2023/09/22 01:00:39;;;;;;;0.50;0.50;;;;;;;;;;5044928;28;20221;-73
2023/09/22 01:03:06;;;;;;;0.88;0.60;;;;;;;;;;5046020;28;20193;-73
2023/09/22 01:05:34;;;;;;;0.60;0.60;;;;;;;;;;5044394;28;20217;-73
2023/09/22 01:08:00;;;;;;;0.93;0.70;;;;;;;;;;5042591;28;20206;-73
2023/09/22 01:10:35;;;;;;;2.67;0.60;;;;;;;;;;5043081;28;20202;-73
2023/09/22 01:13:01;;;;;;;0.60;0.60;;;;;;;;;;5045826;28;20240;-73
2023/09/22 01:15:27;;;;;;;0.65;0.57;;;;;;;;;;5044932;28;20217;-72
2023/09/22 01:17:54;;;;;;;0.80;0.43;;;;;;;;;;5042094;28;20849;-72
2023/09/22 01:20:22;;;;;;;1.98;0.63;;;;;;;;;;5042550;28;20199;-72
2023/09/22 01:22:50;;;;;;;0.80;0.40;;;;;;;;;;5045878;28;20232;-72
2023/09/22 01:25:17;;;;;;;1.75;0.60;;;;;;;;;;5045764;28;20221;-72
2023/09/22 01:27:43;;;;;;;0.50;0.50;;;;;;;;;;5042709;28;20208;-72
2023/09/22 01:30:10;;;;;;;0.57;0.55;;;;;;;;;;5042424;28;20202;-72
2023/09/22 01:32:38;;;;;;;0.95;0.60;;;;;;;;;;5043457;28;20218;-73
2023/09/22 01:35:04;;;;;;;1.85;0.40;;;;;;;;;;5044813;28;20230;-73
2023/09/22 01:37:33;;;;;;;0.68;0.68;;;;;;;;;;5044055;28;20272;-73
2023/09/22 01:40:01;;;;;;;2.75;0.60;;;;;;;;;;5042465;28;20205;-73
2023/09/22 01:42:27;;;;;;;1.40;0.60;;;;;;;;;;5042235;28;20229;-73
2023/09/22 01:44:53;;;;;;;0.95;0.60;;;;;;;;;;5045239;28;20197;-73
2023/09/22 01:47:20;;;;;;;1.27;0.80;;;;;;;;;;5045109;28;20572;-73
2023/09/22 01:49:46;;;;;;;3.55;0.80;;;;;;;;;;5042670;28;20216;-73
2023/09/22 01:52:12;;;;;;;1.15;0.70;;;;;;;;;;5041969;28;20198;-73
2023/09/22 01:54:39;;;;;;;1.63;0.60;;;;;;;;;;5043403;28;20209;-73
2023/09/22 01:57:06;;;;;;;0.40;0.40;;;;;;;;;;5045193;28;20708;-73
2023/09/22 01:59:33;;;;;;;0.50;0.50;;;;;;;;;;5045525;28;20197;-73
2023/09/22 02:02:00;;;;;;;0.93;0.60;;;;;;;;;;5047966;28;20193;-73
2023/09/22 02:04:28;;;;;;;1.75;0.80;;;;;;;;;;5053097;28;20189;-73
2023/09/22 02:06:54;;;;;;;0.57;0.57;;;;;;;;;;5037387;28;20220;-73
2023/09/22 02:09:20;;;;;;;0.43;0.43;;;;;;;;;;5041533;28;20201;-73
2023/09/22 02:11:46;;;;;;;0.50;0.50;;;;;;;;;;5043863;28;20213;-73
2023/09/22 02:14:14;;;;;;;2.80;1.00;;;;;;;;;;5044891;28;20295;-73
2023/09/22 02:16:41;;;;;;;0.82;0.75;;;;;;;;;;5042918;28;20240;-73
2023/09/22 02:19:07;;;;;;;0.80;0.80;;;;;;;;;;5041595;28;20251;-73
2023/09/22 02:21:33;;;;;;;0.70;0.63;;;;;;;;;;5041971;28;20667;-73
2023/09/22 02:24:00;;;;;;;1.65;0.63;;;;;;;;;;5044583;28;20223;-73
2023/09/22 02:26:26;;;;;;;0.70;0.60;;;;;;;;;;5044469;28;20271;-73
2023/09/22 02:28:53;;;;;;;0.68;0.68;;;;;;;;;;5041627;28;20198;-73
2023/09/22 02:31:21;;;;;;;1.05;0.60;;;;;;;;;;5041407;28;20582;-72
2023/09/22 02:33:48;;;;;;;2.58;0.50;;;;;;;;;;5043715;28;20241;-72
2023/09/22 02:36:16;;;;;;;0.85;0.75;;;;;;;;;;5045922;28;20213;-72
2023/09/22 02:38:43;;;;;;;3.42;0.85;;;;;;;;;;5042776;28;20204;-72
2023/09/22 02:41:09;;;;;;;0.60;0.60;;;;;;;;;;5040805;28;20675;-73
2023/09/22 02:43:35;;;;;;;0.80;0.70;;;;;;;;;;5041437;28;20696;-73
2023/09/22 02:46:03;;;;;;;0.90;0.90;;;;;;;;;;5044330;28;20224;-73
2023/09/22 02:48:30;;;;;;;1.75;0.63;;;;;;;;;;5044042;28;20201;-73
2023/09/22 02:50:56;;;;;;;3.10;0.80;;;;;;;;;;5032527;28;20194;-73
2023/09/22 02:53:23;;;;;;;0.70;0.65;;;;;;;;;;5040625;28;20232;-73
2023/09/22 02:55:50;;;;;;;0.73;0.73;;;;;;;;;;5042344;28;20234;-73
2023/09/22 02:58:16;;;;;;;0.63;0.60;;;;;;;;;;5043917;28;20599;-73
2023/09/22 03:00:44;;;;;;;0.93;0.60;;;;;;;;;;5042561;28;20201;-73
2023/09/22 03:03:12;;;;;;;1.92;0.80;;;;;;;;;;5040694;28;20217;-73
2023/09/22 03:05:40;;;;;;;0.60;0.60;;;;;;;;;;5041023;28;20224;-73
2023/09/22 03:08:06;;;;;;;2.30;0.70;;;;;;;;;;5043460;28;20598;-73
2023/09/22 03:10:32;;;;;;;3.05;0.98;;;;;;;;;;5043716;28;20220;-73
2023/09/22 03:12:59;;;;;;;1.88;0.80;;;;;;;;;;5032380;28;20214;-73
2023/09/22 03:15:25;;;;;;;0.70;0.70;;;;;;;;;;5040462;28;20710;-73
2023/09/22 03:17:51;;;;;;;0.85;0.85;;;;;;;;;;5042468;28;20205;-73
2023/09/22 03:20:18;;;;;;;1.17;0.60;;;;;;;;;;5043810;28;20208;-73
2023/09/22 03:22:46;;;;;;;1.27;0.63;;;;;;;;;;5042238;28;20208;-73
2023/09/22 03:25:12;;;;;;;2.55;0.90;;;;;;;;;;5040343;28;20229;-73
2023/09/22 03:27:39;;;;;;;2.25;0.80;;;;;;;;;;5040307;28;20209;-73
2023/09/22 03:30:06;;;;;;;1.20;0.68;;;;;;;;;;5043620;28;20193;-73
2023/09/22 03:32:32;;;;;;;0.70;0.52;;;;;;;;;;5043304;28;20197;-73
2023/09/22 03:34:59;;;;;;;1.02;0.70;;;;;;;;;;5040066;28;20221;-73
2023/09/22 03:37:27;;;;;;;1.55;0.90;;;;;;;;;;5039716;28;20194;-73
2023/09/22 03:39:55;;;;;;;2.55;0.90;;;;;;;;;;5042301;28;20209;-73
2023/09/22 03:42:21;;;;;;;1.85;0.73;;;;;;;;;;5043496;28;20193;-73
2023/09/22 03:44:47;;;;;;;0.95;0.95;;;;;;;;;;5041691;28;20197;-73
2023/09/22 03:47:13;;;;;;;1.88;0.98;;;;;;;;;;5039618;28;20260;-73
2023/09/22 03:49:40;;;;;;;2.92;0.82;;;;;;;;;;5040135;28;20197;-73
2023/09/22 03:52:06;;;;;;;3.75;0.98;;;;;;;;;;5043249;28;20205;-73
2023/09/22 03:54:32;;;;;;;1.00;0.65;;;;;;;;;;5043384;28;20720;-73
2023/09/22 03:57:01;;;;;;;1.15;0.75;;;;;;;;;;5041096;28;20236;-73
2023/09/22 03:59:27;;;;;;;1.02;0.70;;;;;;;;;;5039266;28;20578;-73
2023/09/22 04:01:54;;;;;;;4.18;1.05;;;;;;;;;;5041573;28;20198;-73
2023/09/22 04:04:20;;;;;;;1.10;1.00;;;;;;;;;;5043001;28;20288;-73
2023/09/22 04:06:46;;;;;;;1.67;0.80;;;;;;;;;;5041498;28;20239;-73
2023/09/22 04:09:13;;;;;;;2.25;0.70;;;;;;;;;;5039884;28;20208;-73
2023/09/22 04:11:39;;;;;;;2.30;0.80;;;;;;;;;;5039459;28;20683;-73
2023/09/22 04:14:07;;;;;;;3.22;0.80;;;;;;;;;;5031452;28;20213;-73
2023/09/22 04:16:34;;;;;;;2.10;1.20;;;;;;;;;;5039366;28;20221;-73
2023/09/22 04:19:00;;;;;;;0.60;0.60;;;;;;;;;;5042020;28;20209;-73
2023/09/22 04:21:27;;;;;;;1.15;1.13;;;;;;;;;;5043184;28;20342;-73
2023/09/22 04:23:57;;;;;;;0.90;0.90;;;;;;;;;;5041101;28;20197;-73
2023/09/22 04:26:27;;;;;;;0.95;0.95;;;;;;;;;;5039407;28;20213;-73
2023/09/22 04:28:54;;;;;;;2.17;0.98;;;;;;;;;;5039292;28;20275;-73
2023/09/22 04:31:23;;;;;;;0.70;0.70;;;;;;;;;;5039451;28;20581;-73
2023/09/22 04:33:49;;;;;;;1.13;1.02;;;;;;;;;;5040182;28;20221;-73
2023/09/22 04:36:15;;;;;;;2.15;1.10;;;;;;;;;;5043072;28;20220;-73
2023/09/22 04:38:44;;;;;;;1.65;1.05;;;;;;;;;;5042707;28;20228;-73
2023/09/22 04:41:11;;;;;;;1.63;1.00;;;;;;;;;;5042970;28;20206;-73
2023/09/22 04:43:37;;;;;;;1.50;0.90;;;;;;;;;;5042590;28;20662;-73
2023/09/22 04:46:03;;;;;;;1.05;1.02;;;;;;;;;;5031761;28;20232;-73
2023/09/22 04:48:31;;;;;;;1.00;1.00;;;;;;;;;;5041353;28;20222;-72
2023/09/22 04:50:58;;;;;;;1.00;0.93;;;;;;;;;;5041070;28;20210;-72
2023/09/22 04:53:25;;;;;;;1.30;1.00;;;;;;;;;;5042612;28;20264;-72
2023/09/22 04:55:58;;;;;;;2.00;1.10;;;;;;;;;;5041340;28;20647;-72
2023/09/22 04:58:25;;;;;;;1.67;1.05;;;;;;;;;;5038976;28;20209;-72
2023/09/22 05:00:53;;;;;;;2.03;1.08;;;;;;;;;;5039697;28;20197;-72
2023/09/22 05:03:20;;;;;;;2.97;1.20;;;;;;;;;;5042511;28;20205;-72
2023/09/22 05:05:48;;;;;;;1.10;1.10;;;;;;;;;;5042054;28;20228;-72
2023/09/22 05:08:15;;;;;;;2.70;0.90;;;;;;;;;;5038851;28;20288;-72
2023/09/22 05:10:41;;;;;;;3.40;1.20;;;;;;;;;;5039659;28;20201;-72
2023/09/22 05:13:08;;;;;;;0.95;0.95;;;;;;;;;;5045365;28;20285;-72
2023/09/22 05:15:34;;;;;;;3.13;1.00;;;;;;;;;;5045633;28;20221;-72
2023/09/22 05:18:00;;;;;;;2.83;1.25;;;;;;;;;;5043666;28;20204;-72
2023/09/22 05:20:27;;;;;;;1.45;0.95;;;;;;;;;;5042382;28;20206;-72
2023/09/22 05:22:55;;;;;;;2.25;0.93;;;;;;;;;;5043267;28;20197;-72
2023/09/22 05:25:21;;;;;;;6.20;1.17;;;;;;;;;;5045595;28;20223;-72
2023/09/22 05:27:48;;;;;;;1.30;1.20;;;;;;;;;;5044961;28;20288;-72
2023/09/22 05:30:14;;;;;;;4.05;1.20;;;;;;;;;;5042038;28;20205;-72
2023/09/22 05:32:41;;;;;;;1.23;1.13;;;;;;;;;;5042432;28;20206;-72
2023/09/22 05:35:08;;;;;;;2.60;1.23;;;;;;;;;;5044630;28;20221;-72
2023/09/22 05:37:34;;;;;;;2.85;1.23;;;;;;;;;;5045264;28;20552;-72
2023/09/22 05:40:11;;;;;;;1.08;1.05;;;;;;;;;;5043789;28;20205;-72
2023/09/22 05:42:38;;;;;;;1.10;1.10;;;;;;;;;;5042342;28;20208;-72
2023/09/22 05:45:04;;;;;;;1.08;1.08;;;;;;;;;;5043628;28;20550;-72
2023/09/22 05:47:31;;;;;;;2.00;1.20;;;;;;;;;;5044979;28;20201;-72
2023/09/22 05:49:57;;;;;;;2.83;1.38;;;;;;;;;;5044328;28;20229;-72
2023/09/22 05:52:23;;;;;;;0.90;0.90;;;;;;;;;;5042237;28;20666;-72
2023/09/22 05:54:49;;;;;;;1.20;1.20;;;;;;;;;;5041430;28;20244;-72
2023/09/22 05:57:17;;;;;;;1.20;1.20;;;;;;;;;;5033517;28;20198;-72
2023/09/22 05:59:43;;;;;;;1.27;1.20;;;;;;;;;;5041871;28;20201;-72
2023/09/22 06:02:10;;;;;;;1.75;1.10;;;;;;;;;;5044375;28;20293;-72
2023/09/22 06:04:36;;;;;;;1.23;1.20;;;;;;;;;;5044844;28;20189;-72
2023/09/22 06:07:03;;;;;;;2.55;1.08;;;;;;;;;;5042839;28;20201;-72
2023/09/22 06:09:31;;;;;;;4.70;1.13;;;;;;;;;;5041361;28;20205;-72
2023/09/22 06:11:57;;;;;;;1.50;0.93;;;;;;;;;;5042082;28;20197;-72
2023/09/22 06:14:26;;;;;;;1.20;1.20;;;;;;;;;;5044746;28;20228;-72
2023/09/22 06:16:52;;;;;;;2.83;1.40;;;;;;;;;;5044467;28;20279;-72
2023/09/22 06:19:20;;;;;;;3.67;1.17;;;;;;;;;;5041398;28;20674;-72
2023/09/22 06:21:46;;;;;;;5.68;1.20;;;;;;;;;;5040817;28;20225;-72
2023/09/22 06:24:12;;;;;;;3.95;1.40;;;;;;;;;;5033856;28;20229;-75
2023/09/22 06:26:39;;;;;;;3.60;1.67;;;;;;;;;;5033584;28;20717;-75
2023/09/22 06:29:05;;;;;;;6.72;2.85;;;;;;;;;;5037089;28;20205;-76
2023/09/22 06:31:33;;;;;;;7.40;2.72;;;;;;;;;;5032552;28;20597;-76
2023/09/22 06:34:00;;;;;;;7.78;2.83;;;;;;;;;;5037630;28;20291;-76
2023/09/22 06:36:26;;;;;;;6.10;2.92;;;;;;;;;;5034989;28;20318;-76
2023/09/22 06:38:52;;;;;;;6.45;2.10;;;;;;;;;;5035310;28;20217;-76
2023/09/22 06:41:19;;;;;;;11.38;1.80;;;;;;;;;;5037548;28;20224;-74
2023/09/22 06:43:46;;;;;;;2.25;1.60;;;;;;;;;;5035971;28;20674;-73
2023/09/22 06:46:29;;;;;;;3.10;1.27;;;;;;;;;;5041266;28;20286;-73
2023/09/22 06:48:57;;;;;;;1.98;1.48;;;;;;;;;;5038305;28;20213;-73
2023/09/22 06:51:23;;;;;;;3.78;1.00;;;;;;;;;;5035044;28;20527;-75
2023/09/22 06:53:50;;;;;;;2.65;1.20;;;;;;;;;;5036260;28;20205;-80
2023/09/22 06:56:18;;;;;;;1.35;1.20;;;;;;;;;;5037261;28;20239;-75
2023/09/22 06:58:44;;;;;;;1.13;1.08;;;;;;;;;;5029869;28;20210;-79
2023/09/22 07:01:11;;;;;;;1.10;1.05;;;;;;;;;;5040227;28;20206;-78
2023/09/22 07:03:38;;;;;;;1.15;1.00;;;;;;;;;;5038442;28;21258;-78
2023/09/22 07:06:07;;;;;;;2.13;0.90;;;;;;;;;;5040215;28;20313;-77
2023/09/22 07:08:34;;;;;;;3.50;1.23;;;;;;;;;;5033891;28;20273;-75
2023/09/22 07:11:01;;;;;;;0.73;0.73;;;;;;;;;;5039765;28;20209;-74
2023/09/22 07:13:28;;;;;;;1.58;0.93;;;;;;;;;;5033618;28;20197;-80
2023/09/22 07:15:55;;;;;;;4.18;1.20;;;;;;;;;;5030235;28;20599;-74
2023/09/22 07:18:22;;;;;;;3.10;1.00;;;;;;;;;;5034397;28;20216;-77
2023/09/22 07:20:48;;;;;;;0.88;0.88;;;;;;;;;;5034147;28;20221;-82
2023/09/22 07:23:16;;;;;;;1.83;1.20;;;;;;;;;;5034194;28;20210;-75
2023/09/22 07:25:42;;;;;;;1.80;0.80;;;;;;;;;;5032189;28;20847;-75
2023/09/22 07:28:08;;;;;;;5.55;0.90;;;;;;;;;;5029012;28;20210;-74
2023/09/22 07:30:35;;;;;;;2.58;1.00;;;;;;;;;;5036867;28;20209;-75
2023/09/22 07:33:01;;;;;;;2.03;0.98;;;;;;;;;;5032127;28;20214;-76
2023/09/22 07:35:28;;;;;;;1.35;1.30;;;;;;;;;;5033026;28;20721;-76
2023/09/22 07:37:54;;;;;;;2.60;1.15;;;;;;;;;;5030394;28;20210;-76
2023/09/22 07:40:22;;;;;;;1.65;1.20;;;;;;;;;;5037116;28;20206;-75
2023/09/22 07:42:48;;;;;;;0.80;0.80;;;;;;;;;;5037466;28;20201;-76
2023/09/22 07:45:14;;;;;;;1.42;1.10;;;;;;;;;;5028067;28;20225;-76
2023/09/22 07:47:40;;;;;;;1.90;1.20;;;;;;;;;;5031272;28;20205;-77
2023/09/22 07:50:07;;;;;;;2.70;1.20;;;;;;;;;;5026389;28;20217;-78
2023/09/22 07:52:34;;;;;;;1.55;1.08;;;;;;;;;;5032533;28;20217;-74
2023/09/22 07:55:01;;;;;;;2.25;1.08;;;;;;;;;;5039984;28;20310;-75
2023/09/22 07:57:30;;;;;;;3.63;1.50;;;;;;;;;;5024045;28;20593;-77
2023/09/22 07:59:56;;;;;;;1.50;0.98;;;;;;;;;;5039634;28;20231;-73
2023/09/22 08:02:23;;;;;;;1.45;1.00;;;;;;;;;;5026280;28;20336;-72
2023/09/22 08:04:49;;;;;;;1.23;1.13;;;;;;;;;;5032553;28;20640;-72
2023/09/22 08:07:15;;;;;;;2.35;1.33;;;;;;;;;;5025541;28;20205;-73
2023/09/22 08:09:41;;;;;;;2.05;1.30;;;;;;;;;;5035668;28;20214;-72
2023/09/22 08:12:08;;;;;;;2.67;1.10;;;;;;;;;;5034978;28;20871;-72
2023/09/22 08:14:36;;;;;;;3.80;0.98;;;;;;;;;;5041648;28;20281;-72
2023/09/22 08:17:04;;;;;;;2.80;1.08;;;;;;;;;;5034004;28;20205;-73
2023/09/22 08:19:31;;;;;;;2.78;1.00;;;;;;;;;;5025650;28;20213;-75
2023/09/22 08:21:57;;;;;;;0.90;0.90;;;;;;;;;;5026882;28;20602;-71
2023/09/22 08:24:23;;;;;;;1.05;1.05;;;;;;;;;;5033434;28;20215;-71
2023/09/22 08:26:50;;;;;;;2.88;0.98;;;;;;;;;;5025505;28;20272;-71
2023/09/22 08:29:17;;;;;;;1.20;1.10;;;;;;;;;;5025157;28;20753;-71
2023/09/22 08:31:44;;;;;;;1.88;1.00;;;;;;;;;;5024506;28;20599;-75
2023/09/22 08:34:11;;;;;;;4.95;1.13;;;;;;;;;;5032639;28;20221;-76
2023/09/22 08:36:37;;;;;;;0.82;0.82;;;;;;;;;;5026659;28;20736;-70
2023/09/22 08:39:04;;;;;;;3.75;1.45;;;;;;;;;;5024048;28;20213;-70
2023/09/22 08:41:32;;;;;;;3.42;1.33;;;;;;;;;;5019123;28;20210;-70
2023/09/22 08:43:59;;;;;;;1.27;1.27;;;;;;;;;;5027514;28;20210;-70
2023/09/22 08:46:26;;;;;;;1.33;1.23;;;;;;;;;;5030797;28;20238;-72
2023/09/22 08:48:54;;;;;;;3.55;1.20;;;;;;;;;;5030421;28;20674;-70
2023/09/22 08:51:21;;;;;;;3.00;1.77;;;;;;;;;;5030495;28;20641;-70
2023/09/22 08:53:47;;;;;;;2.15;1.42;;;;;;;;;;5030858;28;20205;-70
2023/09/22 08:56:14;;;;;;;1.50;1.40;;;;;;;;;;5030087;28;20237;-71
2023/09/22 08:58:40;;;;;;;2.85;1.70;;;;;;;;;;5028453;28;20748;-72
2023/09/22 09:01:07;;;;;;;1.33;1.25;;;;;;;;;;5030652;28;20209;-70
2023/09/22 09:03:34;;;;;;;2.30;1.30;;;;;;;;;;5030884;28;20301;-72
2023/09/22 09:06:08;;;;;;;1.50;1.13;;;;;;;;;;5030991;28;20234;-71
2023/09/22 09:08:35;;;;;;;0.90;0.90;;;;;;;;;;5028982;28;20209;-71
2023/09/22 09:11:05;;;;;;;1.40;0.90;;;;;;;;;;5030473;28;20213;-71
2023/09/22 09:13:31;;;;;;;1.80;0.90;;;;;;;;;;5031911;28;20210;-71
2023/09/22 09:16:01;;;;;;;1.70;1.30;;;;;;;;;;5030096;28;20230;-72
2023/09/22 09:18:29;;;;;;;2.33;1.17;;;;;;;;;;5030043;28;20206;-72
2023/09/22 09:21:05;;;;;;;2.60;1.02;;;;;;;;;;5029626;28;20297;-71
2023/09/22 09:23:33;;;;;;;5.07;1.20;;;;;;;;;;5030131;28;20247;-72
2023/09/22 09:25:59;;;;;;;4.10;0.90;;;;;;;;;;5030123;28;20237;-71
2023/09/22 09:28:26;;;;;;;2.13;1.00;;;;;;;;;;5029539;28;20263;-74
2023/09/22 09:30:53;;;;;;;1.38;1.00;;;;;;;;;;5030399;28;20228;-72
2023/09/22 09:33:20;;;;;;;2.35;1.13;;;;;;;;;;5029666;28;20210;-70
2023/09/22 09:35:47;;;;;;;3.85;0.90;;;;;;;;;;5030230;28;20230;-76
2023/09/22 09:38:13;;;;;;;5.93;0.88;;;;;;;;;;5030206;28;20689;-76
2023/09/22 09:40:41;;;;;;;2.50;0.90;;;;;;;;;;5030042;28;20217;-75
2023/09/22 09:43:10;;;;;;;0.80;0.80;;;;;;;;;;5029922;28;20210;-77
2023/09/22 09:45:40;;;;;;;1.55;0.82;;;;;;;;;;5029663;28;20221;-74
2023/09/22 09:48:09;;;;;;;2.38;0.90;;;;;;;;;;5029674;28;20229;-74
2023/09/22 09:50:36;;;;;;;2.33;1.05;;;;;;;;;;5029239;28;20205;-73
2023/09/22 09:53:06;;;;;;;0.98;0.80;;;;;;;;;;5029883;28;20216;-72
2023/09/22 09:55:34;;;;;;;0.90;0.90;;;;;;;;;;5028905;28;20233;-71
2023/09/22 09:58:02;;;;;;;1.63;1.20;;;;;;;;;;5028079;28;20219;-72
2023/09/22 10:00:29;;;;;;;5.38;1.00;;;;;;;;;;5029372;28;20214;-74
2023/09/22 10:02:57;;;;;;;1.13;1.02;;;;;;;;;;5028740;28;20637;-74
2023/09/22 10:05:23;;;;;;;4.00;1.38;;;;;;;;;;5028784;28;20592;-74
2023/09/22 10:07:50;;;;;;;1.30;1.17;;;;;;;;;;5028964;28;20670;-75
2023/09/22 10:10:17;;;;;;;3.33;0.85;;;;;;;;;;5029667;28;20209;-75
2023/09/22 10:12:44;;;;;;;1.42;1.30;;;;;;;;;;5029411;28;20220;-75
2023/09/22 10:15:12;;;;;;;2.53;1.00;;;;;;;;;;5029300;28;20233;-75
2023/09/22 10:17:38;;;;;;;1.10;1.05;;;;;;;;;;5028982;28;20213;-75
2023/09/22 10:20:07;;;;;;;0.95;0.95;;;;;;;;;;5029206;28;20272;-75
2023/09/22 10:22:33;;;;;;;2.33;1.10;;;;;;;;;;5028917;28;20296;-74
2023/09/22 10:25:18;;;;;;;1.00;1.00;;;;;;;;;;5029195;28;20236;-74
2023/09/22 10:27:54;;;;;;;2.80;1.00;;;;;;;;;;5020911;28;20205;-74
2023/09/22 10:30:22;;;;;;;1.27;1.10;;;;;;;;;;5029012;28;20302;-75
2023/09/22 10:32:48;;;;;;;2.20;1.00;;;;;;;;;;5028719;28;20213;-75
2023/09/22 10:35:34;;;;;;;3.22;0.82;;;;;;;;;;5028741;28;20233;-75
2023/09/22 10:38:04;;;;;;;0.80;0.80;;;;;;;;;;5022558;28;20225;-75
2023/09/22 10:40:30;;;;;;;1.42;0.93;;;;;;;;;;5028930;28;20214;-74
2023/09/22 10:42:56;;;;;;;1.30;1.17;;;;;;;;;;5028734;28;20213;-74
2023/09/22 10:45:25;;;;;;;1.40;0.90;;;;;;;;;;5028805;28;20225;-74
2023/09/22 10:47:52;;;;;;;0.70;0.70;;;;;;;;;;5028957;28;20592;-75
2023/09/22 10:50:21;;;;;;;4.43;0.93;;;;;;;;;;5028506;28;20244;-75
2023/09/22 10:52:51;;;;;;;0.50;0.50;;;;;;;;;;5028380;28;20217;-75
2023/09/22 10:55:29;;;;;;;2.25;0.60;;;;;;;;;;5028501;28;20293;-75
2023/09/22 10:58:23;;;;;;;0.90;0.50;;;;;;;;;;5023499;28;20212;-74
2023/09/22 11:00:55;;;;;;;2.47;0.80;;;;;;;;;;5028309;28;20676;-74
2023/09/22 11:03:22;;;;;;;0.50;0.50;;;;;;;;;;5028313;28;20220;-70
2023/09/22 11:05:56;;;;;;;1.25;0.60;;;;;;;;;;5027620;28;20221;-75
2023/09/22 11:08:23;;;;;;;4.18;0.70;;;;;;;;;;5027457;28;20236;-72
2023/09/22 11:10:52;;;;;;;2.13;1.10;;;;;;;;;;5028196;28;20222;-71
2023/09/22 11:13:19;;;;;;;1.55;0.63;;;;;;;;;;5028075;28;20205;-73
2023/09/22 11:15:49;;;;;;;1.50;0.55;;;;;;;;;;5027788;28;20766;-74
2023/09/22 11:18:20;;;;;;;1.00;0.57;;;;;;;;;;5028369;28;20205;-72
2023/09/22 11:20:46;;;;;;;1.98;0.60;;;;;;;;;;5027694;28;20663;-74
2023/09/22 11:23:13;;;;;;;0.73;0.38;;;;;;;;;;5033679;28;20213;-72
2023/09/22 11:25:39;;;;;;;1.30;0.40;;;;;;;;;;5038515;28;20229;-72
2023/09/22 11:28:07;;;;;;;0.40;0.40;;;;;;;;;;5035271;28;20202;-71
2023/09/22 11:30:34;;;;;;;0.40;0.40;;;;;;;;;;5029121;28;20743;-72
2023/09/22 11:33:00;;;;;;;0.30;0.30;;;;;;;;;;5028136;28;20241;-74
2023/09/22 11:35:30;;;;;;;0.68;0.40;;;;;;;;;;5027212;28;20225;-71
2023/09/22 11:37:57;;;;;;;1.08;0.65;;;;;;;;;;5027654;28;20205;-74
2023/09/22 11:40:28;;;;;;;0.47;0.40;;;;;;;;;;5027259;28;20206;-74
2023/09/22 11:42:54;;;;;;;0.40;0.40;;;;;;;;;;5028071;28;20630;-73
2023/09/22 11:45:22;;;;;;;0.43;0.43;;;;;;;;;;5028687;28;20236;-72
2023/09/22 11:47:49;;;;;;;0.52;0.30;;;;;;;;;;5019081;28;20577;-72
2023/09/22 11:50:22;;;;;;;0.43;0.40;;;;;;;;;;5027542;28;20225;-70
2023/09/22 11:52:48;;;;;;;1.65;0.60;;;;;;;;;;5027002;28;20241;-75
2023/09/22 11:55:15;;;;;;;0.75;0.50;;;;;;;;;;5027718;28;20229;-74
2023/09/22 11:57:42;;;;;;;2.10;0.50;;;;;;;;;;5027078;28;20214;-73
2023/09/22 12:00:10;;;;;;;2.60;0.50;;;;;;;;;;5027803;28;20659;-80
2023/09/22 12:02:38;;;;;;;1.40;0.60;;;;;;;;;;5027293;28;20580;-74
2023/09/22 12:05:06;;;;;;;1.65;0.60;;;;;;;;;;5027161;28;20230;-73
2023/09/22 12:07:33;;;;;;;1.42;0.85;;;;;;;;;;5026506;28;20205;-74
2023/09/22 12:09:59;;;;;;;1.08;0.73;;;;;;;;;;5027238;28;20410;-74
2023/09/22 12:12:26;;;;;;;0.50;0.50;;;;;;;;;;5027880;28;20232;-74
2023/09/22 12:14:52;;;;;;;1.98;0.60;;;;;;;;;;5024457;28;20233;-74
2023/09/22 12:17:18;;;;;;;1.40;0.60;;;;;;;;;;5026996;28;20229;-73
2023/09/22 12:19:46;;;;;;;0.90;0.55;;;;;;;;;;5028065;28;20674;-73
2023/09/22 12:22:12;;;;;;;0.45;0.45;;;;;;;;;;5031330;28;20221;-73
2023/09/22 12:24:38;;;;;;;1.85;0.75;;;;;;;;;;5030815;28;20205;-73
2023/09/22 12:27:05;;;;;;;1.42;0.50;;;;;;;;;;5030878;28;20217;-73
2023/09/22 12:29:32;;;;;;;0.98;0.80;;;;;;;;;;5030745;28;20212;-70
2023/09/22 12:31:59;;;;;;;4.15;0.90;;;;;;;;;;5031223;28;20237;-68
2023/09/22 12:34:25;;;;;;;2.15;0.75;;;;;;;;;;5030777;28;20206;-72
2023/09/22 12:36:53;;;;;;;0.55;0.45;;;;;;;;;;5030585;28;20236;-67
2023/09/22 12:39:19;;;;;;;1.23;0.63;;;;;;;;;;5031167;28;20739;-72
2023/09/22 12:41:46;;;;;;;1.80;0.60;;;;;;;;;;5031562;28;20209;-70
2023/09/22 12:44:13;;;;;;;3.08;0.50;;;;;;;;;;5030898;28;20235;-72
2023/09/22 12:46:39;;;;;;;0.60;0.60;;;;;;;;;;5030961;28;20230;-74
2023/09/22 12:49:05;;;;;;;0.68;0.52;;;;;;;;;;5030754;28;20301;-73
2023/09/22 12:51:31;;;;;;;1.33;0.60;;;;;;;;;;5030688;28;20209;-74
2023/09/22 12:53:58;;;;;;;0.80;0.52;;;;;;;;;;5030590;28;20568;-72
2023/09/22 12:56:24;;;;;;;1.00;0.50;;;;;;;;;;5029986;28;20230;-70
2023/09/22 12:58:51;;;;;;;2.53;0.50;;;;;;;;;;5030276;28;20214;-76
2023/09/22 13:01:17;;;;;;;1.42;0.63;;;;;;;;;;5030897;28;20208;-68
2023/09/22 13:03:45;;;;;;;0.40;0.40;;;;;;;;;;5030339;28;20232;-68
2023/09/22 13:06:11;;;;;;;0.55;0.30;;;;;;;;;;5030081;28;20691;-69
2023/09/22 13:08:38;;;;;;;1.17;0.60;;;;;;;;;;5030077;28;20206;-69
2023/09/22 13:11:05;;;;;;;0.50;0.50;;;;;;;;;;5030852;28;20201;-69
2023/09/22 13:13:32;;;;;;;0.57;0.57;;;;;;;;;;5030671;28;20205;-69
2023/09/22 13:15:58;;;;;;;2.50;0.50;;;;;;;;;;5029840;28;20225;-71
2023/09/22 13:18:24;;;;;;;1.48;0.40;;;;;;;;;;5030414;28;20208;-72
2023/09/22 13:20:51;;;;;;;0.50;0.50;;;;;;;;;;5030210;28;20205;-73
2023/09/22 13:23:17;;;;;;;0.50;0.30;;;;;;;;;;5031036;28;20213;-69
2023/09/22 13:25:44;;;;;;;1.25;0.52;;;;;;;;;;5030318;28;20225;-71
2023/09/22 13:28:12;;;;;;;1.65;0.40;;;;;;;;;;5029646;28;20202;-69
2023/09/22 13:30:39;;;;;;;0.98;0.52;;;;;;;;;;5029873;28;20201;-69
2023/09/22 13:33:05;;;;;;;0.40;0.40;;;;;;;;;;5029080;28;20209;-69
2023/09/22 13:35:33;;;;;;;0.50;0.50;;;;;;;;;;5030521;28;20225;-70
2023/09/22 13:37:59;;;;;;;0.52;0.52;;;;;;;;;;5030173;28;20233;-70
2023/09/22 13:40:25;;;;;;;1.05;0.40;;;;;;;;;;5029924;28;20210;-69
2023/09/22 13:42:52;;;;;;;0.55;0.50;;;;;;;;;;5029726;28;20697;-67
2023/09/22 13:45:19;;;;;;;3.00;0.50;;;;;;;;;;5029745;28;20221;-68
2023/09/22 13:47:46;;;;;;;0.55;0.30;;;;;;;;;;5028992;28;20214;-72
2023/09/22 13:50:14;;;;;;;0.75;0.40;;;;;;;;;;5029871;28;20600;-69
2023/09/22 13:52:40;;;;;;;1.40;0.50;;;;;;;;;;5029691;28;20213;-69
2023/09/22 13:55:08;;;;;;;0.75;0.43;;;;;;;;;;5029787;28;20229;-69
2023/09/22 13:57:35;;;;;;;2.72;0.50;;;;;;;;;;5029291;28;20308;-67
2023/09/22 14:00:01;;;;;;;0.40;0.40;;;;;;;;;;5029466;28;20206;-69
2023/09/22 14:02:29;;;;;;;0.55;0.35;;;;;;;;;;5029367;28;20648;-68
2023/09/22 14:04:56;;;;;;;0.57;0.43;;;;;;;;;;5028910;28;20320;-69
2023/09/22 14:07:22;;;;;;;0.35;0.35;;;;;;;;;;5028449;28;20625;-69
2023/09/22 14:09:48;;;;;;;0.50;0.50;;;;;;;;;;5029448;28;20220;-69
2023/09/22 14:12:14;;;;;;;0.65;0.65;;;;;;;;;;5028948;28;20209;-71
2023/09/22 14:14:41;;;;;;;0.63;0.50;;;;;;;;;;5029738;28;20213;-72
2023/09/22 14:17:08;;;;;;;0.73;0.52;;;;;;;;;;5032300;28;20272;-73
2023/09/22 14:19:36;;;;;;;0.30;0.30;;;;;;;;;;5041458;28;20572;-73
2023/09/22 14:22:03;;;;;;;0.77;0.60;;;;;;;;;;5044515;28;20311;-73
2023/09/22 14:24:29;;;;;;;0.50;0.50;;;;;;;;;;5044720;28;20228;-73
2023/09/22 14:26:55;;;;;;;0.50;0.50;;;;;;;;;;5042046;28;20235;-73
2023/09/22 14:29:22;;;;;;;2.17;0.40;;;;;;;;;;5041239;28;20193;-73
2023/09/22 14:31:48;;;;;;;1.15;0.50;;;;;;;;;;5042447;28;20578;-73
2023/09/22 14:34:14;;;;;;;0.43;0.30;;;;;;;;;;5045062;28;20197;-73
2023/09/22 14:36:42;;;;;;;0.38;0.38;;;;;;;;;;5044006;28;20221;-73
2023/09/22 14:39:08;;;;;;;0.43;0.43;;;;;;;;;;5041434;28;20197;-73
2023/09/22 14:41:34;;;;;;;0.47;0.40;;;;;;;;;;5041211;28;20293;-73
2023/09/22 14:44:01;;;;;;;0.75;0.50;;;;;;;;;;5043334;28;20669;-73